createdAt,value
2019-04-21T04:45:44.497Z,8.07
2019-04-21T04:48:10.906Z,8.03
2019-04-21T04:51:25.202Z,7.93
2019-04-21T04:53:44.311Z,8.17
2019-04-21T04:56:30.674Z,8.23
2019-04-21T05:02:15.254Z,7.93
2019-04-21T05:08:39.602Z,7.83
2019-04-21T05:10:07.370Z,8.67
2019-04-21T05:12:44.214Z,7.80
2019-04-21T05:15:23.922Z,7.97
2019-04-21T05:18:35.163Z,7.93
2019-04-21T05:21:07.422Z,8.27
2019-04-21T05:23:22.973Z,7.27
2019-04-21T05:29:49.537Z,8.60
2019-04-21T05:32:58.372Z,7.93
2019-04-21T05:35:57.292Z,7.70
2019-04-21T05:38:57.011Z,7.93
2019-04-21T05:41:34.836Z,7.67
2019-04-21T05:44:35.450Z,7.80
2019-04-21T05:52:56.889Z,7.63
2019-04-21T05:55:57.130Z,7.60
2019-04-21T05:58:44.928Z,8.33
2019-04-21T06:01:33.026Z,8.20
2019-04-21T06:04:20.487Z,8.03
2019-04-21T06:07:02.234Z,7.60
2019-04-21T06:09:48.893Z,7.47
2019-04-21T06:12:23.796Z,7.40
2019-04-21T06:15:22.846Z,7.73
2019-04-21T06:17:54.394Z,7.77
2019-04-21T06:20:34.952Z,7.27
2019-04-21T06:23:19.096Z,8.20
2019-04-21T06:26:19.738Z,7.87
2019-04-21T06:29:09.117Z,7.63
2019-04-21T06:32:05.571Z,7.80
2019-04-21T06:34:24.941Z,8.30
2019-04-21T06:40:38.657Z,7.93
2019-04-21T06:43:26.990Z,8.40
2019-04-21T06:46:17.814Z,8.40
2019-04-21T06:48:49.778Z,8.20
2019-04-21T06:51:32.321Z,8.13
2019-04-21T06:54:17.426Z,8.00
2019-04-21T06:56:58.448Z,8.07
2019-04-21T06:59:38.459Z,8.20
2019-04-21T07:05:15.777Z,7.90
2019-04-21T07:08:09.256Z,7.77
2019-04-21T07:10:39.298Z,7.57
2019-04-21T07:13:22.361Z,7.00
2019-04-21T07:16:13.894Z,7.50
2019-04-21T07:19:01.146Z,6.80
2019-04-21T07:21:33.880Z,6.67
2019-04-21T07:24:30.430Z,6.70
2019-04-21T07:27:02.350Z,6.77
2019-04-21T07:32:33.735Z,7.87
2019-04-21T07:35:17.846Z,7.33
2019-04-21T07:38:01.263Z,7.57
2019-04-21T07:40:33.404Z,8.57
2019-04-21T07:43:20.590Z,8.60
2019-04-21T07:46:03.979Z,9.27
2019-04-21T07:48:58.554Z,8.97
2019-04-21T07:51:49.057Z,9.00
2019-04-21T07:54:44.529Z,8.90
2019-04-21T07:57:15.951Z,8.67
2019-04-21T08:00:16.453Z,8.83
2019-04-21T08:02:49.590Z,8.63
2019-04-21T08:05:31.336Z,8.30
2019-04-21T08:08:14.226Z,8.87
2019-04-21T08:10:56.778Z,7.87
2019-04-21T08:13:48.551Z,8.43
2019-04-21T08:16:30.640Z,8.60
2019-04-21T08:19:15.582Z,8.20
2019-04-21T08:22:00.103Z,7.90
2019-04-21T08:24:43.270Z,7.80
2019-04-21T08:27:30.262Z,8.13
2019-04-21T08:30:04.826Z,7.83
2019-04-21T08:38:20.354Z,7.60
2019-04-21T08:41:03.590Z,7.27
2019-04-21T08:43:48.225Z,7.37
2019-04-21T08:46:31.064Z,7.40
2019-04-21T08:49:15.825Z,7.10
2019-04-21T08:52:00.719Z,7.65
2019-04-21T08:54:43.516Z,7.93
2019-04-21T09:00:51.425Z,7.37
2019-04-21T09:03:52.025Z,7.40
2019-04-21T09:06:42.060Z,6.92
2019-04-21T09:09:18.087Z,7.13
2019-04-21T09:12:01.620Z,8.17
2019-04-21T09:14:50.680Z,8.00
2019-04-21T09:17:25.192Z,7.53
2019-04-21T09:20:16.910Z,7.70
2019-04-21T09:22:54.251Z,7.70
2019-04-21T09:28:19.872Z,8.83
2019-04-21T09:30:55.932Z,8.30
2019-04-21T09:33:41.306Z,8.83
2019-04-21T09:36:22.106Z,8.77
2019-04-21T09:39:11.279Z,8.30
2019-04-21T09:41:53.666Z,7.90
2019-04-21T09:44:38.600Z,8.37
2019-04-21T09:47:23.443Z,8.65
2019-04-21T09:50:06.637Z,8.58
2019-04-21T09:52:54.496Z,8.75
2019-04-21T09:55:43.001Z,8.13
2019-04-21T09:58:23.961Z,8.28
2019-04-21T10:01:08.442Z,9.23
2019-04-21T10:03:48.261Z,9.13
2019-04-21T10:06:28.453Z,9.20
2019-04-21T10:09:14.438Z,9.43
2019-04-21T10:11:54.858Z,9.10
2019-04-21T10:14:36.629Z,8.58
2019-04-21T10:17:21.765Z,9.55
2019-04-21T10:20:05.078Z,9.53
2019-04-21T10:22:46.862Z,9.30
2019-04-21T10:25:28.858Z,10.00
2019-04-21T10:28:12.794Z,9.55
2019-04-21T10:30:56.406Z,9.80
2019-04-21T10:33:38.083Z,9.30
2019-04-21T10:36:20.443Z,9.88
2019-04-21T10:39:04.207Z,9.65
2019-04-21T10:41:47.795Z,9.53
2019-04-21T10:44:31.518Z,9.90
2019-04-21T10:47:16.595Z,9.83
2019-04-21T10:50:00.393Z,9.55
2019-04-21T10:53:02.941Z,9.50
2019-04-21T10:55:59.010Z,8.83
2019-04-21T10:58:52.174Z,9.03
2019-04-21T11:01:36.782Z,8.63
2019-04-21T11:04:29.666Z,8.90
2019-04-21T11:07:45.403Z,9.05
2019-04-21T11:10:23.597Z,8.55
2019-04-21T11:13:05.557Z,8.10
2019-04-21T11:15:57.183Z,7.80
2019-04-21T11:18:40.210Z,7.40
2019-04-21T11:21:22.927Z,7.30
2019-04-21T11:24:05.924Z,6.92
2019-04-21T11:26:51.860Z,8.00
2019-04-21T11:29:33.398Z,7.53
2019-04-21T11:32:16.830Z,7.62
2019-04-21T11:34:49.325Z,7.55
2019-04-21T11:37:37.860Z,7.30
2019-04-21T11:40:21.559Z,7.33
2019-04-21T11:43:05.924Z,8.05
2019-04-21T11:45:48.531Z,8.20
2019-04-21T11:48:32.510Z,8.00
2019-04-21T11:51:15.224Z,7.60
2019-04-21T11:53:59.074Z,8.10
2019-04-21T11:56:43.086Z,7.25
2019-04-21T11:59:25.906Z,7.47
2019-04-21T12:02:09.701Z,8.08
2019-04-21T12:04:57.208Z,7.50
2019-04-21T12:07:40.806Z,7.60
2019-04-21T12:10:23.759Z,7.50
2019-04-21T12:13:07.416Z,7.90
2019-04-21T12:15:50.177Z,7.80
2019-04-21T12:18:33.850Z,7.95
2019-04-21T12:21:15.772Z,7.87
2019-04-21T12:23:58.584Z,7.35
2019-04-21T12:26:53.929Z,7.87
2019-04-21T12:29:37.845Z,7.75
2019-04-21T12:32:40.131Z,7.50
2019-04-21T12:35:23.866Z,7.42
2019-04-21T12:38:06.755Z,7.25
2019-04-21T12:40:38.762Z,7.25
2019-04-21T12:44:00.351Z,7.20
2019-04-21T12:46:43.628Z,7.30
2019-04-21T12:49:25.512Z,7.35
2019-04-21T12:52:07.644Z,7.28
2019-04-21T12:54:51.384Z,7.10
2019-04-21T12:57:33.574Z,6.72
2019-04-21T13:00:18.464Z,6.62
2019-04-21T13:03:01.643Z,6.62
2019-04-21T13:05:45.325Z,6.80
2019-04-21T13:08:27.397Z,6.80
2019-04-21T13:11:11.313Z,6.37
2019-04-21T13:13:53.651Z,5.92
2019-04-21T13:16:37.087Z,6.47
2019-04-21T13:19:19.224Z,5.80
2019-04-21T13:22:01.583Z,5.80
2019-04-21T13:24:44.130Z,6.85
2019-04-21T13:27:26.892Z,6.65
2019-04-21T13:30:10.407Z,6.75
2019-04-21T13:32:53.412Z,6.42
2019-04-21T13:35:37.154Z,6.47
2019-04-21T13:38:29.135Z,6.25
2019-04-21T13:44:13.337Z,6.37
2019-04-21T13:47:06.853Z,6.00
2019-04-21T13:49:49.576Z,6.05
2019-04-21T13:52:31.166Z,6.33
2019-04-21T13:55:13.895Z,5.85
2019-04-21T13:57:56.762Z,6.08
2019-04-21T14:00:39.965Z,6.12
2019-04-21T14:03:24.724Z,5.90
2019-04-21T14:06:06.630Z,5.97
2019-04-21T14:09:09.726Z,5.22
2019-04-21T14:11:55.095Z,5.45
2019-04-21T14:14:36.859Z,5.45
2019-04-21T14:17:07.211Z,5.97
2019-04-21T14:19:49.143Z,6.30
2019-04-21T14:22:31.803Z,6.28
2019-04-21T14:25:15.293Z,6.35
2019-04-21T14:27:57.879Z,6.67
2019-04-21T14:30:41.174Z,6.17
2019-04-21T14:33:23.763Z,6.85
2019-04-21T14:36:06.325Z,6.33
2019-04-21T14:38:48.411Z,6.37
2019-04-21T14:41:30.689Z,6.47
2019-04-21T14:44:13.194Z,6.30
2019-04-21T14:50:22.474Z,6.30
2019-04-21T14:53:23.561Z,6.37
2019-04-21T14:56:07.067Z,5.55
2019-04-21T14:58:50.700Z,5.90
2019-04-21T15:01:33.741Z,5.90
2019-04-21T15:04:17.720Z,5.62
2019-04-21T15:07:01.206Z,5.75
2019-04-21T15:09:44.645Z,5.62
2019-04-21T15:12:27.853Z,6.12
2019-04-21T15:15:09.967Z,5.35
2019-04-21T15:17:51.684Z,5.22
2019-04-21T15:20:34.218Z,5.45
2019-04-21T15:23:17.928Z,5.42
2019-04-21T15:26:01.927Z,5.35
2019-04-21T15:28:44.521Z,5.60
2019-04-21T15:31:30.538Z,5.60
2019-04-21T15:34:13.023Z,5.50
2019-04-21T15:36:55.619Z,6.00
2019-04-21T15:39:38.420Z,6.45
2019-04-21T15:42:21.048Z,6.40
2019-04-21T15:45:03.073Z,6.37
2019-04-21T15:47:46.153Z,6.62
2019-04-21T15:50:28.426Z,7.03
2019-04-21T15:53:11.926Z,6.60
2019-04-21T15:56:13.366Z,7.15
2019-04-21T16:02:14.959Z,6.35
2019-04-21T16:04:56.832Z,6.00
2019-04-21T16:07:40.221Z,6.67
2019-04-21T16:10:34.653Z,6.50
2019-04-21T16:13:05.893Z,6.28
2019-04-21T16:15:48.422Z,6.30
2019-04-21T16:18:30.441Z,6.37
2019-04-21T16:21:02.082Z,5.87
2019-04-21T16:24:12.268Z,6.03
2019-04-21T16:27:04.601Z,6.10
2019-04-21T16:29:44.213Z,5.87
2019-04-21T16:32:26.160Z,5.30
2019-04-21T16:35:11.162Z,5.17
2019-04-21T16:37:55.288Z,5.40
2019-04-21T16:40:45.386Z,9.05
2019-04-21T16:43:20.000Z,5.42
2019-04-21T16:46:01.645Z,11.60
2019-04-21T16:48:44.206Z,12.40
2019-04-21T16:51:24.777Z,5.33
2019-04-21T16:57:30.837Z,4.80
2019-04-21T17:00:29.102Z,5.17
2019-04-21T17:03:08.328Z,5.40
2019-04-21T17:05:50.243Z,5.90
2019-04-21T17:08:33.790Z,5.80
2019-04-21T17:11:20.697Z,5.95
2019-04-21T17:14:00.653Z,14.20
2019-04-21T17:17:03.247Z,9.03
2019-04-21T17:19:29.830Z,6.15
2019-04-21T17:22:09.896Z,11.15
2019-04-21T17:24:52.658Z,5.83
2019-04-21T17:27:35.496Z,5.50
2019-04-21T17:30:19.181Z,6.08
2019-04-21T17:33:01.436Z,6.03
2019-04-21T17:35:44.904Z,5.70
2019-04-21T17:38:28.013Z,5.92
2019-04-21T17:41:21.871Z,5.70
2019-04-21T17:43:53.919Z,5.70
2019-04-21T17:46:44.050Z,6.03
2019-04-21T17:49:21.204Z,6.58
2019-04-21T17:52:30.626Z,5.62
2019-04-21T17:55:27.507Z,5.17
2019-04-21T17:58:16.295Z,5.70
2019-04-21T18:04:01.411Z,5.55
2019-04-21T18:06:36.907Z,5.50
2019-04-21T18:09:18.278Z,5.62
2019-04-21T18:12:16.718Z,5.55
2019-04-21T18:15:02.421Z,5.15
2019-04-21T18:17:36.542Z,4.92
2019-04-21T18:20:23.961Z,5.30
2019-04-21T18:23:34.893Z,4.97
2019-04-21T18:26:23.215Z,4.83
2019-04-21T18:28:53.839Z,5.00
2019-04-21T18:31:42.709Z,5.10
2019-04-21T18:34:52.603Z,5.72
2019-04-21T18:38:10.129Z,5.42
2019-04-21T18:40:42.839Z,5.33
2019-04-21T18:44:02.891Z,5.12
2019-04-21T18:46:39.790Z,5.87
2019-04-21T18:49:13.302Z,5.30
2019-04-21T18:52:18.137Z,5.72
2019-04-21T18:55:09.463Z,5.22
2019-04-21T18:57:42.797Z,5.12
2019-04-21T19:00:30.711Z,5.05
2019-04-21T19:03:09.946Z,5.33
2019-04-21T19:05:55.212Z,5.47
2019-04-21T19:08:53.637Z,5.20
2019-04-21T19:11:32.860Z,5.58
2019-04-21T19:14:36.275Z,5.50
2019-04-21T19:17:29.215Z,5.78
2019-04-21T19:19:54.638Z,14.28
2019-04-21T19:22:40.097Z,11.05
2019-04-21T19:25:20.914Z,9.30
2019-04-21T19:27:59.089Z,7.78
2019-04-21T19:33:29.628Z,6.78
2019-04-21T19:36:03.432Z,7.20
2019-04-21T19:39:09.345Z,6.60
2019-04-21T19:41:50.975Z,5.62
2019-04-21T19:44:44.901Z,5.22
2019-04-21T19:47:27.851Z,5.62
2019-04-21T19:50:44.935Z,5.70
2019-04-21T19:53:02.824Z,6.13
2019-04-21T19:55:36.477Z,6.12
2019-04-21T19:58:26.319Z,6.13
2019-04-21T20:01:03.559Z,6.60
2019-04-21T20:03:49.860Z,6.40
2019-04-21T20:06:45.570Z,6.50
2019-04-21T20:09:32.469Z,6.62
2019-04-21T20:12:09.385Z,6.20
2019-04-21T20:15:04.842Z,6.67
2019-04-21T20:17:44.979Z,5.95
2019-04-21T20:20:15.162Z,6.00
2019-04-21T20:23:22.752Z,6.17
2019-04-21T20:25:58.560Z,6.07
2019-04-21T20:28:49.191Z,6.40
2019-04-21T20:31:40.955Z,6.00
2019-04-21T20:34:26.880Z,5.73
2019-04-21T20:37:07.685Z,6.17
2019-04-21T20:39:45.254Z,5.77
2019-04-21T20:42:34.599Z,6.30
2019-04-21T20:47:50.420Z,6.23
2019-04-21T20:50:41.937Z,6.70
2019-04-21T20:53:31.305Z,6.47
2019-04-21T20:56:08.550Z,6.10
2019-04-21T20:58:58.417Z,7.90
2019-04-21T21:01:45.733Z,9.30
2019-04-21T21:04:22.994Z,9.33
2019-04-21T21:07:16.280Z,8.77
2019-04-21T21:10:03.111Z,9.70
2019-04-21T21:12:42.778Z,8.90
2019-04-21T21:15:24.619Z,8.47
2019-04-21T21:18:22.822Z,7.63
2019-04-21T21:20:54.088Z,6.87
2019-04-21T21:23:37.786Z,7.00
2019-04-21T21:26:26.905Z,6.80
2019-04-21T21:28:59.815Z,7.17
2019-04-21T21:31:50.539Z,6.80
2019-04-21T21:34:34.513Z,6.70
2019-04-21T21:37:29.279Z,7.00
2019-04-21T21:40:04.062Z,8.00
2019-04-21T21:42:33.829Z,7.67
2019-04-21T21:45:17.875Z,7.63
2019-04-21T21:48:11.241Z,7.53
2019-04-21T21:50:50.938Z,7.67
